sensor_id;sensor_type;location;lat;lon;timestamp;P1;durP1;ratioP1;P2;durP2;ratioP2
20287;SDS011;10303;51.960;8.372;2022-12-04T00:02:09;17.83;;;7.67;;
20287;SDS011;10303;51.960;8.372;2022-12-04T00:04:37;17.47;;;7.73;;
20287;SDS011;10303;51.960;8.372;2022-12-04T00:07:07;19.30;;;8.83;;
20287;SDS011;10303;51.960;8.372;2022-12-04T00:09:33;23.43;;;10.40;;
20287;SDS011;10303;51.960;8.372;2022-12-04T00:11:59;18.23;;;7.93;;
20287;SDS011;10303;51.960;8.372;2022-12-04T00:14:25;14.87;;;7.87;;
20287;SDS011;10303;51.960;8.372;2022-12-04T00:16:51;15.30;;;7.43;;
20287;SDS011;10303;51.960;8.372;2022-12-04T00:19:17;15.83;;;7.63;;
20287;SDS011;10303;51.960;8.372;2022-12-04T00:21:43;17.17;;;8.30;;
20287;SDS011;10303;51.960;8.372;2022-12-04T00:24:10;17.27;;;8.67;;
20287;SDS011;10303;51.960;8.372;2022-12-04T00:26:36;14.10;;;7.57;;
20287;SDS011;10303;51.960;8.372;2022-12-04T00:29:03;16.03;;;8.17;;
20287;SDS011;10303;51.960;8.372;2022-12-04T00:31:29;14.50;;;7.20;;
20287;SDS011;10303;51.960;8.372;2022-12-04T00:33:55;12.17;;;7.60;;
20287;SDS011;10303;51.960;8.372;2022-12-04T00:36:23;18.13;;;8.57;;
20287;SDS011;10303;51.960;8.372;2022-12-04T00:38:51;21.33;;;9.63;;
20287;SDS011;10303;51.960;8.372;2022-12-04T00:41:19;16.40;;;7.90;;
20287;SDS011;10303;51.960;8.372;2022-12-04T00:43:50;19.90;;;7.60;;
20287;SDS011;10303;51.960;8.372;2022-12-04T00:46:17;22.57;;;9.10;;
20287;SDS011;10303;51.960;8.372;2022-12-04T00:48:43;21.37;;;9.13;;
20287;SDS011;10303;51.960;8.372;2022-12-04T00:51:12;16.37;;;7.40;;
20287;SDS011;10303;51.960;8.372;2022-12-04T00:53:41;16.27;;;8.27;;
20287;SDS011;10303;51.960;8.372;2022-12-04T00:56:09;21.00;;;9.30;;
20287;SDS011;10303;51.960;8.372;2022-12-04T00:58:43;14.80;;;7.27;;
20287;SDS011;10303;51.960;8.372;2022-12-04T01:01:11;11.10;;;6.47;;
20287;SDS011;10303;51.960;8.372;2022-12-04T01:03:43;19.27;;;8.97;;
20287;SDS011;10303;51.960;8.372;2022-12-04T01:06:20;17.40;;;7.93;;
20287;SDS011;10303;51.960;8.372;2022-12-04T01:08:50;17.47;;;8.03;;
20287;SDS011;10303;51.960;8.372;2022-12-04T01:11:19;15.77;;;8.43;;
20287;SDS011;10303;51.960;8.372;2022-12-04T01:13:47;17.10;;;8.20;;
20287;SDS011;10303;51.960;8.372;2022-12-04T01:16:14;16.37;;;8.40;;
20287;SDS011;10303;51.960;8.372;2022-12-04T01:18:47;15.03;;;7.60;;
20287;SDS011;10303;51.960;8.372;2022-12-04T01:21:14;19.27;;;9.33;;
20287;SDS011;10303;51.960;8.372;2022-12-04T01:23:40;16.60;;;8.30;;
20287;SDS011;10303;51.960;8.372;2022-12-04T01:26:07;17.30;;;8.10;;
20287;SDS011;10303;51.960;8.372;2022-12-04T01:28:33;18.90;;;9.53;;
20287;SDS011;10303;51.960;8.372;2022-12-04T01:31:09;20.00;;;8.43;;
20287;SDS011;10303;51.960;8.372;2022-12-04T01:33:41;21.60;;;9.03;;
20287;SDS011;10303;51.960;8.372;2022-12-04T01:36:09;19.67;;;9.33;;
20287;SDS011;10303;51.960;8.372;2022-12-04T01:38:39;19.80;;;8.67;;
20287;SDS011;10303;51.960;8.372;2022-12-04T01:41:07;19.50;;;8.47;;
20287;SDS011;10303;51.960;8.372;2022-12-04T01:43:36;20.70;;;8.53;;
20287;SDS011;10303;51.960;8.372;2022-12-04T01:46:04;22.13;;;9.60;;
20287;SDS011;10303;51.960;8.372;2022-12-04T01:54:03;15.70;;;7.33;;
20287;SDS011;10303;51.960;8.372;2022-12-04T01:56:37;23.90;;;9.63;;
20287;SDS011;10303;51.960;8.372;2022-12-04T01:59:12;18.47;;;8.23;;
20287;SDS011;10303;51.960;8.372;2022-12-04T02:01:57;23.37;;;8.07;;
20287;SDS011;10303;51.960;8.372;2022-12-04T02:04:29;17.20;;;8.17;;
20287;SDS011;10303;51.960;8.372;2022-12-04T02:06:57;18.50;;;8.27;;
20287;SDS011;10303;51.960;8.372;2022-12-04T02:09:23;22.63;;;7.93;;
20287;SDS011;10303;51.960;8.372;2022-12-04T02:12:06;18.83;;;8.83;;
20287;SDS011;10303;51.960;8.372;2022-12-04T02:20:42;19.30;;;8.30;;
20287;SDS011;10303;51.960;8.372;2022-12-04T02:29:31;18.77;;;9.07;;
20287;SDS011;10303;51.960;8.372;2022-12-04T02:32:25;20.10;;;8.97;;
20287;SDS011;10303;51.960;8.372;2022-12-04T02:35:05;12.37;;;6.87;;
20287;SDS011;10303;51.960;8.372;2022-12-04T02:37:43;18.63;;;9.27;;
20287;SDS011;10303;51.960;8.372;2022-12-04T02:40:20;20.03;;;8.80;;
20287;SDS011;10303;51.960;8.372;2022-12-04T02:43:00;19.67;;;10.00;;
20287;SDS011;10303;51.960;8.372;2022-12-04T02:45:39;16.37;;;9.33;;
20287;SDS011;10303;51.960;8.372;2022-12-04T02:48:18;26.03;;;10.43;;
20287;SDS011;10303;51.960;8.372;2022-12-04T02:50:47;19.50;;;9.13;;
20287;SDS011;10303;51.960;8.372;2022-12-04T02:53:51;18.57;;;8.97;;
20287;SDS011;10303;51.960;8.372;2022-12-04T02:56:24;16.23;;;6.80;;
20287;SDS011;10303;51.960;8.372;2022-12-04T02:58:58;18.53;;;7.90;;
20287;SDS011;10303;51.960;8.372;2022-12-04T03:01:42;18.10;;;8.17;;
20287;SDS011;10303;51.960;8.372;2022-12-04T03:04:19;19.80;;;8.73;;
20287;SDS011;10303;51.960;8.372;2022-12-04T03:06:51;19.87;;;8.90;;
20287;SDS011;10303;51.960;8.372;2022-12-04T03:09:33;15.27;;;7.27;;
20287;SDS011;10303;51.960;8.372;2022-12-04T03:14:49;20.23;;;9.40;;
20287;SDS011;10303;51.960;8.372;2022-12-04T03:17:26;20.23;;;9.70;;
20287;SDS011;10303;51.960;8.372;2022-12-04T03:20:02;19.30;;;8.57;;
20287;SDS011;10303;51.960;8.372;2022-12-04T03:22:36;18.93;;;7.80;;
20287;SDS011;10303;51.960;8.372;2022-12-04T03:25:07;20.63;;;9.37;;
20287;SDS011;10303;51.960;8.372;2022-12-04T03:27:56;17.97;;;7.63;;
20287;SDS011;10303;51.960;8.372;2022-12-04T03:30:42;20.10;;;8.93;;
20287;SDS011;10303;51.960;8.372;2022-12-04T03:33:22;16.30;;;7.00;;
20287;SDS011;10303;51.960;8.372;2022-12-04T03:36:23;24.60;;;9.37;;
20287;SDS011;10303;51.960;8.372;2022-12-04T03:39:02;14.47;;;6.60;;
20287;SDS011;10303;51.960;8.372;2022-12-04T03:47:52;15.70;;;6.67;;
20287;SDS011;10303;51.960;8.372;2022-12-04T03:50:34;17.70;;;7.07;;
20287;SDS011;10303;51.960;8.372;2022-12-04T03:53:11;15.87;;;8.37;;
20287;SDS011;10303;51.960;8.372;2022-12-04T03:58:45;16.43;;;7.73;;
20287;SDS011;10303;51.960;8.372;2022-12-04T04:01:16;12.13;;;5.90;;
20287;SDS011;10303;51.960;8.372;2022-12-04T04:03:50;13.23;;;6.57;;
20287;SDS011;10303;51.960;8.372;2022-12-04T04:06:31;16.80;;;9.33;;
20287;SDS011;10303;51.960;8.372;2022-12-04T04:09:17;16.47;;;7.80;;
20287;SDS011;10303;51.960;8.372;2022-12-04T04:12:08;12.23;;;6.50;;
20287;SDS011;10303;51.960;8.372;2022-12-04T04:14:48;12.53;;;6.33;;
20287;SDS011;10303;51.960;8.372;2022-12-04T04:17:40;12.73;;;6.47;;
20287;SDS011;10303;51.960;8.372;2022-12-04T04:23:36;15.90;;;5.53;;
20287;SDS011;10303;51.960;8.372;2022-12-04T04:26:28;11.70;;;5.30;;
20287;SDS011;10303;51.960;8.372;2022-12-04T04:29:02;11.03;;;5.40;;
20287;SDS011;10303;51.960;8.372;2022-12-04T04:34:04;10.47;;;5.37;;
20287;SDS011;10303;51.960;8.372;2022-12-04T04:42:49;14.77;;;6.50;;
20287;SDS011;10303;51.960;8.372;2022-12-04T04:48:18;11.87;;;5.03;;
20287;SDS011;10303;51.960;8.372;2022-12-04T04:50:52;10.43;;;5.93;;
20287;SDS011;10303;51.960;8.372;2022-12-04T04:53:24;11.90;;;6.03;;
20287;SDS011;10303;51.960;8.372;2022-12-04T04:55:57;12.20;;;6.50;;
20287;SDS011;10303;51.960;8.372;2022-12-04T04:58:24;10.87;;;5.80;;
20287;SDS011;10303;51.960;8.372;2022-12-04T05:00:57;17.17;;;6.70;;
20287;SDS011;10303;51.960;8.372;2022-12-04T05:03:29;10.57;;;5.40;;
20287;SDS011;10303;51.960;8.372;2022-12-04T05:05:56;6.83;;;4.43;;
20287;SDS011;10303;51.960;8.372;2022-12-04T05:08:22;11.97;;;4.80;;
20287;SDS011;10303;51.960;8.372;2022-12-04T05:10:48;9.83;;;5.50;;
20287;SDS011;10303;51.960;8.372;2022-12-04T05:13:15;13.13;;;5.87;;
20287;SDS011;10303;51.960;8.372;2022-12-04T05:15:42;8.43;;;4.57;;
20287;SDS011;10303;51.960;8.372;2022-12-04T05:18:09;8.67;;;5.27;;
20287;SDS011;10303;51.960;8.372;2022-12-04T05:20:38;10.23;;;6.17;;
20287;SDS011;10303;51.960;8.372;2022-12-04T05:23:05;10.43;;;4.80;;
20287;SDS011;10303;51.960;8.372;2022-12-04T05:25:31;10.40;;;4.17;;
20287;SDS011;10303;51.960;8.372;2022-12-04T05:27:57;8.83;;;5.70;;
20287;SDS011;10303;51.960;8.372;2022-12-04T05:30:23;12.97;;;5.87;;
20287;SDS011;10303;51.960;8.372;2022-12-04T05:32:49;12.07;;;5.30;;
20287;SDS011;10303;51.960;8.372;2022-12-04T05:35:15;10.47;;;5.43;;
20287;SDS011;10303;51.960;8.372;2022-12-04T05:37:42;10.90;;;5.47;;
20287;SDS011;10303;51.960;8.372;2022-12-04T05:40:09;10.07;;;4.90;;
20287;SDS011;10303;51.960;8.372;2022-12-04T05:42:36;7.47;;;4.47;;
20287;SDS011;10303;51.960;8.372;2022-12-04T05:45:02;11.00;;;4.83;;
20287;SDS011;10303;51.960;8.372;2022-12-04T05:47:28;14.33;;;6.13;;
20287;SDS011;10303;51.960;8.372;2022-12-04T05:49:54;8.80;;;4.97;;
20287;SDS011;10303;51.960;8.372;2022-12-04T05:52:20;12.10;;;5.23;;
20287;SDS011;10303;51.960;8.372;2022-12-04T05:54:46;10.37;;;5.43;;
20287;SDS011;10303;51.960;8.372;2022-12-04T05:57:12;6.57;;;4.33;;
20287;SDS011;10303;51.960;8.372;2022-12-04T05:59:38;9.97;;;5.17;;
20287;SDS011;10303;51.960;8.372;2022-12-04T06:02:04;8.27;;;4.13;;
20287;SDS011;10303;51.960;8.372;2022-12-04T06:04:30;12.57;;;5.37;;
20287;SDS011;10303;51.960;8.372;2022-12-04T06:06:56;9.77;;;4.37;;
20287;SDS011;10303;51.960;8.372;2022-12-04T06:09:22;9.90;;;5.03;;
20287;SDS011;10303;51.960;8.372;2022-12-04T06:11:48;11.57;;;5.37;;
20287;SDS011;10303;51.960;8.372;2022-12-04T06:14:15;14.67;;;5.77;;
20287;SDS011;10303;51.960;8.372;2022-12-04T06:16:42;10.50;;;5.57;;
20287;SDS011;10303;51.960;8.372;2022-12-04T06:19:15;8.20;;;5.10;;
20287;SDS011;10303;51.960;8.372;2022-12-04T06:21:45;7.50;;;4.60;;
20287;SDS011;10303;51.960;8.372;2022-12-04T06:24:20;12.00;;;5.57;;
20287;SDS011;10303;51.960;8.372;2022-12-04T06:26:49;8.83;;;5.17;;
20287;SDS011;10303;51.960;8.372;2022-12-04T06:29:19;8.07;;;4.83;;
20287;SDS011;10303;51.960;8.372;2022-12-04T06:31:46;14.33;;;4.70;;
20287;SDS011;10303;51.960;8.372;2022-12-04T06:34:12;14.00;;;6.13;;
20287;SDS011;10303;51.960;8.372;2022-12-04T06:36:38;15.43;;;6.93;;
20287;SDS011;10303;51.960;8.372;2022-12-04T06:39:04;15.10;;;5.83;;
20287;SDS011;10303;51.960;8.372;2022-12-04T06:41:30;9.53;;;5.57;;
20287;SDS011;10303;51.960;8.372;2022-12-04T06:43:56;9.47;;;4.13;;
20287;SDS011;10303;51.960;8.372;2022-12-04T06:46:23;8.63;;;3.53;;
20287;SDS011;10303;51.960;8.372;2022-12-04T06:48:53;9.33;;;5.27;;
20287;SDS011;10303;51.960;8.372;2022-12-04T06:51:28;9.93;;;4.23;;
20287;SDS011;10303;51.960;8.372;2022-12-04T06:53:59;7.83;;;4.33;;
20287;SDS011;10303;51.960;8.372;2022-12-04T06:56:27;9.50;;;4.47;;
20287;SDS011;10303;51.960;8.372;2022-12-04T06:58:57;6.50;;;4.17;;
20287;SDS011;10303;51.960;8.372;2022-12-04T07:01:26;9.20;;;3.73;;
20287;SDS011;10303;51.960;8.372;2022-12-04T07:03:55;6.73;;;4.30;;
20287;SDS011;10303;51.960;8.372;2022-12-04T07:08:56;7.93;;;4.73;;
20287;SDS011;10303;51.960;8.372;2022-12-04T07:11:36;8.13;;;4.63;;
20287;SDS011;10303;51.960;8.372;2022-12-04T07:14:03;11.77;;;5.43;;
20287;SDS011;10303;51.960;8.372;2022-12-04T07:16:31;8.80;;;4.23;;
20287;SDS011;10303;51.960;8.372;2022-12-04T07:18:58;8.83;;;4.77;;
20287;SDS011;10303;51.960;8.372;2022-12-04T07:21:25;7.20;;;4.40;;
20287;SDS011;10303;51.960;8.372;2022-12-04T07:23:55;11.00;;;4.27;;
20287;SDS011;10303;51.960;8.372;2022-12-04T07:26:26;7.03;;;4.40;;
20287;SDS011;10303;51.960;8.372;2022-12-04T07:28:55;7.23;;;4.00;;
20287;SDS011;10303;51.960;8.372;2022-12-04T07:31:23;7.53;;;4.13;;
20287;SDS011;10303;51.960;8.372;2022-12-04T07:33:52;8.80;;;5.03;;
20287;SDS011;10303;51.960;8.372;2022-12-04T07:36:23;12.43;;;4.47;;
20287;SDS011;10303;51.960;8.372;2022-12-04T07:38:53;6.13;;;4.13;;
20287;SDS011;10303;51.960;8.372;2022-12-04T07:41:20;7.23;;;3.53;;
20287;SDS011;10303;51.960;8.372;2022-12-04T07:43:46;5.83;;;4.00;;
20287;SDS011;10303;51.960;8.372;2022-12-04T07:46:14;7.10;;;3.70;;
20287;SDS011;10303;51.960;8.372;2022-12-04T07:48:46;8.63;;;4.83;;
20287;SDS011;10303;51.960;8.372;2022-12-04T07:51:16;6.07;;;3.17;;
20287;SDS011;10303;51.960;8.372;2022-12-04T07:53:45;8.67;;;3.90;;
20287;SDS011;10303;51.960;8.372;2022-12-04T07:56:13;7.77;;;4.00;;
20287;SDS011;10303;51.960;8.372;2022-12-04T07:58:40;4.13;;;2.87;;
20287;SDS011;10303;51.960;8.372;2022-12-04T08:03:49;10.23;;;5.23;;
20287;SDS011;10303;51.960;8.372;2022-12-04T08:06:20;6.53;;;4.13;;
20287;SDS011;10303;51.960;8.372;2022-12-04T08:08:49;7.57;;;4.00;;
20287;SDS011;10303;51.960;8.372;2022-12-04T08:11:17;4.90;;;3.53;;
20287;SDS011;10303;51.960;8.372;2022-12-04T08:13:52;7.30;;;4.10;;
20287;SDS011;10303;51.960;8.372;2022-12-04T08:16:26;8.07;;;4.40;;
20287;SDS011;10303;51.960;8.372;2022-12-04T08:18:54;11.60;;;5.00;;
20287;SDS011;10303;51.960;8.372;2022-12-04T08:21:23;9.80;;;4.13;;
20287;SDS011;10303;51.960;8.372;2022-12-04T08:23:53;6.97;;;4.10;;
20287;SDS011;10303;51.960;8.372;2022-12-04T08:26:23;7.37;;;4.13;;
20287;SDS011;10303;51.960;8.372;2022-12-04T08:28:52;6.70;;;3.90;;
20287;SDS011;10303;51.960;8.372;2022-12-04T08:31:21;10.80;;;4.37;;
20287;SDS011;10303;51.960;8.372;2022-12-04T08:33:52;13.17;;;4.73;;
20287;SDS011;10303;51.960;8.372;2022-12-04T08:36:21;6.87;;;3.57;;
20287;SDS011;10303;51.960;8.372;2022-12-04T08:38:48;7.70;;;4.07;;
20287;SDS011;10303;51.960;8.372;2022-12-04T08:41:16;4.57;;;3.10;;
20287;SDS011;10303;51.960;8.372;2022-12-04T08:43:44;7.93;;;4.20;;
20287;SDS011;10303;51.960;8.372;2022-12-04T08:46:12;4.77;;;3.63;;
20287;SDS011;10303;51.960;8.372;2022-12-04T08:48:40;9.70;;;5.00;;
20287;SDS011;10303;51.960;8.372;2022-12-04T08:51:10;5.60;;;3.47;;
20287;SDS011;10303;51.960;8.372;2022-12-04T08:53:43;5.50;;;3.23;;
20287;SDS011;10303;51.960;8.372;2022-12-04T08:56:10;6.83;;;4.30;;
20287;SDS011;10303;51.960;8.372;2022-12-04T08:58:37;5.73;;;3.37;;
20287;SDS011;10303;51.960;8.372;2022-12-04T09:01:06;5.00;;;3.40;;
20287;SDS011;10303;51.960;8.372;2022-12-04T09:03:35;6.37;;;3.93;;
20287;SDS011;10303;51.960;8.372;2022-12-04T09:06:06;8.87;;;4.77;;
20287;SDS011;10303;51.960;8.372;2022-12-04T09:08:35;11.20;;;4.57;;
20287;SDS011;10303;51.960;8.372;2022-12-04T09:11:03;9.60;;;4.30;;
20287;SDS011;10303;51.960;8.372;2022-12-04T09:13:43;12.33;;;6.13;;
20287;SDS011;10303;51.960;8.372;2022-12-04T09:16:11;10.50;;;5.67;;
20287;SDS011;10303;51.960;8.372;2022-12-04T09:18:41;12.10;;;5.93;;
20287;SDS011;10303;51.960;8.372;2022-12-04T09:21:09;13.50;;;5.70;;
20287;SDS011;10303;51.960;8.372;2022-12-04T09:23:37;8.50;;;4.37;;
20287;SDS011;10303;51.960;8.372;2022-12-04T09:26:05;7.87;;;5.00;;
20287;SDS011;10303;51.960;8.372;2022-12-04T09:28:43;9.57;;;4.73;;
20287;SDS011;10303;51.960;8.372;2022-12-04T09:31:10;8.83;;;5.23;;
20287;SDS011;10303;51.960;8.372;2022-12-04T09:33:36;8.83;;;4.77;;
20287;SDS011;10303;51.960;8.372;2022-12-04T09:36:02;9.70;;;4.97;;
20287;SDS011;10303;51.960;8.372;2022-12-04T09:38:29;9.07;;;4.80;;
20287;SDS011;10303;51.960;8.372;2022-12-04T09:44:22;11.40;;;5.83;;
20287;SDS011;10303;51.960;8.372;2022-12-04T09:47:18;12.07;;;5.37;;
20287;SDS011;10303;51.960;8.372;2022-12-04T09:49:58;10.97;;;4.43;;
20287;SDS011;10303;51.960;8.372;2022-12-04T09:58:09;7.77;;;4.57;;
20287;SDS011;10303;51.960;8.372;2022-12-04T10:00:49;8.40;;;5.73;;
20287;SDS011;10303;51.960;8.372;2022-12-04T10:03:18;12.43;;;6.50;;
20287;SDS011;10303;51.960;8.372;2022-12-04T10:08:41;10.13;;;5.33;;
20287;SDS011;10303;51.960;8.372;2022-12-04T10:11:18;14.67;;;7.47;;
20287;SDS011;10303;51.960;8.372;2022-12-04T10:14:25;10.97;;;5.73;;
20287;SDS011;10303;51.960;8.372;2022-12-04T10:25:51;8.63;;;6.00;;
20287;SDS011;10303;51.960;8.372;2022-12-04T10:28:21;17.07;;;7.97;;
20287;SDS011;10303;51.960;8.372;2022-12-04T10:31:02;12.97;;;6.50;;
20287;SDS011;10303;51.960;8.372;2022-12-04T10:33:46;13.47;;;6.17;;
20287;SDS011;10303;51.960;8.372;2022-12-04T10:36:19;12.47;;;7.17;;
20287;SDS011;10303;51.960;8.372;2022-12-04T10:38:54;19.00;;;8.20;;
20287;SDS011;10303;51.960;8.372;2022-12-04T10:44:34;15.87;;;7.83;;
20287;SDS011;10303;51.960;8.372;2022-12-04T10:47:00;19.80;;;8.07;;
20287;SDS011;10303;51.960;8.372;2022-12-04T10:49:33;18.53;;;8.67;;
20287;SDS011;10303;51.960;8.372;2022-12-04T10:52:02;21.70;;;9.77;;
20287;SDS011;10303;51.960;8.372;2022-12-04T10:57:10;13.57;;;6.83;;
20287;SDS011;10303;51.960;8.372;2022-12-04T10:59:38;14.50;;;8.10;;
20287;SDS011;10303;51.960;8.372;2022-12-04T11:02:24;17.37;;;7.37;;
20287;SDS011;10303;51.960;8.372;2022-12-04T11:05:00;18.07;;;7.47;;
20287;SDS011;10303;51.960;8.372;2022-12-04T11:07:52;15.63;;;7.47;;
20287;SDS011;10303;51.960;8.372;2022-12-04T11:10:29;17.87;;;8.63;;
20287;SDS011;10303;51.960;8.372;2022-12-04T11:13:13;14.97;;;7.87;;
20287;SDS011;10303;51.960;8.372;2022-12-04T11:15:52;17.03;;;7.57;;
20287;SDS011;10303;51.960;8.372;2022-12-04T11:18:25;17.40;;;8.20;;
20287;SDS011;10303;51.960;8.372;2022-12-04T11:21:12;18.07;;;8.53;;
20287;SDS011;10303;51.960;8.372;2022-12-04T11:23:49;20.17;;;7.70;;
20287;SDS011;10303;51.960;8.372;2022-12-04T11:26:26;17.87;;;8.83;;
20287;SDS011;10303;51.960;8.372;2022-12-04T11:28:57;16.47;;;8.60;;
20287;SDS011;10303;51.960;8.372;2022-12-04T11:31:26;17.90;;;8.77;;
20287;SDS011;10303;51.960;8.372;2022-12-04T11:33:56;17.30;;;7.90;;
20287;SDS011;10303;51.960;8.372;2022-12-04T11:36:28;20.70;;;8.87;;
20287;SDS011;10303;51.960;8.372;2022-12-04T11:41:43;20.40;;;9.00;;
20287;SDS011;10303;51.960;8.372;2022-12-04T11:44:20;19.43;;;8.77;;
20287;SDS011;10303;51.960;8.372;2022-12-04T11:46:51;16.47;;;8.97;;
20287;SDS011;10303;51.960;8.372;2022-12-04T11:49:21;18.67;;;7.97;;
20287;SDS011;10303;51.960;8.372;2022-12-04T12:00:04;16.53;;;8.40;;
20287;SDS011;10303;51.960;8.372;2022-12-04T12:11:11;20.07;;;9.83;;
20287;SDS011;10303;51.960;8.372;2022-12-04T12:17:31;18.47;;;9.30;;
20287;SDS011;10303;51.960;8.372;2022-12-04T12:20:20;18.27;;;7.57;;
20287;SDS011;10303;51.960;8.372;2022-12-04T12:23:01;17.97;;;8.40;;
20287;SDS011;10303;51.960;8.372;2022-12-04T12:28:39;21.30;;;8.57;;
20287;SDS011;10303;51.960;8.372;2022-12-04T12:34:59;18.10;;;8.13;;
20287;SDS011;10303;51.960;8.372;2022-12-04T12:37:17;16.93;;;8.57;;
20287;SDS011;10303;51.960;8.372;2022-12-04T12:48:50;15.63;;;7.37;;
20287;SDS011;10303;51.960;8.372;2022-12-04T12:51:37;19.60;;;7.43;;
20287;SDS011;10303;51.960;8.372;2022-12-04T12:57:19;15.80;;;8.23;;
20287;SDS011;10303;51.960;8.372;2022-12-04T13:05:29;16.90;;;7.07;;
20287;SDS011;10303;51.960;8.372;2022-12-04T13:13:32;23.83;;;10.00;;
20287;SDS011;10303;51.960;8.372;2022-12-04T13:16:07;19.87;;;9.47;;
20287;SDS011;10303;51.960;8.372;2022-12-04T13:18:42;18.37;;;9.27;;
20287;SDS011;10303;51.960;8.372;2022-12-04T13:21:59;16.73;;;9.10;;
20287;SDS011;10303;51.960;8.372;2022-12-04T13:30:35;18.70;;;8.87;;
20287;SDS011;10303;51.960;8.372;2022-12-04T13:33:27;13.53;;;8.20;;
20287;SDS011;10303;51.960;8.372;2022-12-04T13:36:22;19.33;;;9.80;;
20287;SDS011;10303;51.960;8.372;2022-12-04T13:39:32;20.03;;;9.17;;
20287;SDS011;10303;51.960;8.372;2022-12-04T13:42:25;14.87;;;7.73;;
20287;SDS011;10303;51.960;8.372;2022-12-04T13:44:56;14.70;;;7.17;;
20287;SDS011;10303;51.960;8.372;2022-12-04T13:47:31;18.97;;;7.90;;
20287;SDS011;10303;51.960;8.372;2022-12-04T13:50:07;18.70;;;9.53;;
20287;SDS011;10303;51.960;8.372;2022-12-04T13:52:55;23.33;;;10.83;;
20287;SDS011;10303;51.960;8.372;2022-12-04T13:55:24;21.30;;;9.50;;
20287;SDS011;10303;51.960;8.372;2022-12-04T14:00:36;17.40;;;7.80;;
20287;SDS011;10303;51.960;8.372;2022-12-04T14:06:19;22.33;;;8.93;;
20287;SDS011;10303;51.960;8.372;2022-12-04T14:09:07;18.10;;;9.07;;
20287;SDS011;10303;51.960;8.372;2022-12-04T14:11:51;19.70;;;8.60;;
20287;SDS011;10303;51.960;8.372;2022-12-04T14:14:28;17.70;;;8.73;;
20287;SDS011;10303;51.960;8.372;2022-12-04T14:17:02;17.53;;;8.30;;
20287;SDS011;10303;51.960;8.372;2022-12-04T14:19:31;18.33;;;8.83;;
20287;SDS011;10303;51.960;8.372;2022-12-04T14:22:22;17.13;;;9.47;;
20287;SDS011;10303;51.960;8.372;2022-12-04T14:30:25;24.70;;;9.23;;
20287;SDS011;10303;51.960;8.372;2022-12-04T14:33:21;21.53;;;8.03;;
20287;SDS011;10303;51.960;8.372;2022-12-04T14:35:55;18.90;;;9.03;;
20287;SDS011;10303;51.960;8.372;2022-12-04T14:38:26;15.77;;;8.47;;
20287;SDS011;10303;51.960;8.372;2022-12-04T14:40:54;13.97;;;7.40;;
20287;SDS011;10303;51.960;8.372;2022-12-04T14:43:23;18.30;;;8.37;;
20287;SDS011;10303;51.960;8.372;2022-12-04T14:51:36;20.90;;;9.23;;
20287;SDS011;10303;51.960;8.372;2022-12-04T14:54:45;20.67;;;8.97;;
20287;SDS011;10303;51.960;8.372;2022-12-04T14:57:35;18.97;;;9.07;;
20287;SDS011;10303;51.960;8.372;2022-12-04T15:00:51;18.63;;;8.13;;
20287;SDS011;10303;51.960;8.372;2022-12-04T15:03:20;14.30;;;8.30;;
20287;SDS011;10303;51.960;8.372;2022-12-04T15:05:49;20.83;;;9.37;;
20287;SDS011;10303;51.960;8.372;2022-12-04T15:08:25;16.83;;;7.80;;
20287;SDS011;10303;51.960;8.372;2022-12-04T15:10:51;21.40;;;9.33;;
20287;SDS011;10303;51.960;8.372;2022-12-04T15:13:36;14.80;;;7.93;;
20287;SDS011;10303;51.960;8.372;2022-12-04T15:16:07;20.67;;;10.20;;
20287;SDS011;10303;51.960;8.372;2022-12-04T15:18:40;18.67;;;8.43;;
20287;SDS011;10303;51.960;8.372;2022-12-04T15:21:23;17.73;;;8.73;;
20287;SDS011;10303;51.960;8.372;2022-12-04T15:24:10;19.10;;;7.13;;
20287;SDS011;10303;51.960;8.372;2022-12-04T15:26:47;16.00;;;6.83;;
20287;SDS011;10303;51.960;8.372;2022-12-04T15:29:19;11.50;;;6.40;;
20287;SDS011;10303;51.960;8.372;2022-12-04T15:31:53;18.80;;;8.47;;
20287;SDS011;10303;51.960;8.372;2022-12-04T15:34:24;13.77;;;6.90;;
20287;SDS011;10303;51.960;8.372;2022-12-04T15:37:15;17.87;;;8.87;;
20287;SDS011;10303;51.960;8.372;2022-12-04T15:39:50;17.37;;;7.17;;
20287;SDS011;10303;51.960;8.372;2022-12-04T15:52:53;15.73;;;7.43;;
20287;SDS011;10303;51.960;8.372;2022-12-04T15:58:24;14.90;;;7.77;;
20287;SDS011;10303;51.960;8.372;2022-12-04T16:01:10;12.67;;;6.10;;
20287;SDS011;10303;51.960;8.372;2022-12-04T16:06:24;17.30;;;7.90;;
20287;SDS011;10303;51.960;8.372;2022-12-04T16:09:00;17.13;;;8.13;;
20287;SDS011;10303;51.960;8.372;2022-12-04T16:11:55;18.60;;;8.67;;
20287;SDS011;10303;51.960;8.372;2022-12-04T16:14:53;15.27;;;8.47;;
20287;SDS011;10303;51.960;8.372;2022-12-04T16:17:22;16.63;;;7.50;;
20287;SDS011;10303;51.960;8.372;2022-12-04T16:19:58;17.93;;;8.73;;
20287;SDS011;10303;51.960;8.372;2022-12-04T16:22:29;18.80;;;8.83;;
20287;SDS011;10303;51.960;8.372;2022-12-04T16:24:55;13.93;;;7.57;;
20287;SDS011;10303;51.960;8.372;2022-12-04T16:27:22;13.77;;;7.87;;
20287;SDS011;10303;51.960;8.372;2022-12-04T16:29:50;17.63;;;7.87;;
20287;SDS011;10303;51.960;8.372;2022-12-04T16:32:18;15.93;;;8.13;;
20287;SDS011;10303;51.960;8.372;2022-12-04T16:34:48;20.13;;;8.57;;
20287;SDS011;10303;51.960;8.372;2022-12-04T16:37:16;20.27;;;7.97;;
20287;SDS011;10303;51.960;8.372;2022-12-04T16:39:47;17.83;;;7.93;;
20287;SDS011;10303;51.960;8.372;2022-12-04T16:44:46;17.53;;;7.60;;
20287;SDS011;10303;51.960;8.372;2022-12-04T16:47:12;13.87;;;6.67;;
20287;SDS011;10303;51.960;8.372;2022-12-04T16:49:39;15.83;;;7.80;;
20287;SDS011;10303;51.960;8.372;2022-12-04T16:52:09;17.13;;;8.00;;
20287;SDS011;10303;51.960;8.372;2022-12-04T16:54:36;13.67;;;7.40;;
20287;SDS011;10303;51.960;8.372;2022-12-04T16:57:04;13.47;;;6.90;;
20287;SDS011;10303;51.960;8.372;2022-12-04T16:59:31;16.83;;;8.33;;
20287;SDS011;10303;51.960;8.372;2022-12-04T17:01:57;15.20;;;7.77;;
20287;SDS011;10303;51.960;8.372;2022-12-04T17:04:24;17.23;;;7.27;;
20287;SDS011;10303;51.960;8.372;2022-12-04T17:06:50;14.10;;;6.57;;
20287;SDS011;10303;51.960;8.372;2022-12-04T17:09:16;14.80;;;7.80;;
20287;SDS011;10303;51.960;8.372;2022-12-04T17:11:43;11.87;;;6.10;;
20287;SDS011;10303;51.960;8.372;2022-12-04T17:14:09;10.83;;;5.90;;
20287;SDS011;10303;51.960;8.372;2022-12-04T17:16:36;13.67;;;6.23;;
20287;SDS011;10303;51.960;8.372;2022-12-04T17:19:08;14.03;;;6.87;;
20287;SDS011;10303;51.960;8.372;2022-12-04T17:21:35;18.23;;;7.03;;
20287;SDS011;10303;51.960;8.372;2022-12-04T17:24:02;14.57;;;6.60;;
20287;SDS011;10303;51.960;8.372;2022-12-04T17:26:29;14.80;;;6.73;;
20287;SDS011;10303;51.960;8.372;2022-12-04T17:28:55;10.80;;;5.77;;
20287;SDS011;10303;51.960;8.372;2022-12-04T17:31:23;12.83;;;7.40;;
20287;SDS011;10303;51.960;8.372;2022-12-04T17:33:50;13.70;;;6.40;;
20287;SDS011;10303;51.960;8.372;2022-12-04T17:36:19;10.07;;;5.73;;
20287;SDS011;10303;51.960;8.372;2022-12-04T17:38:55;10.90;;;6.30;;
20287;SDS011;10303;51.960;8.372;2022-12-04T17:41:25;15.10;;;6.87;;
20287;SDS011;10303;51.960;8.372;2022-12-04T17:43:52;9.33;;;6.47;;
20287;SDS011;10303;51.960;8.372;2022-12-04T17:46:19;13.60;;;6.30;;
20287;SDS011;10303;51.960;8.372;2022-12-04T17:48:48;14.77;;;6.67;;
20287;SDS011;10303;51.960;8.372;2022-12-04T17:51:20;12.73;;;7.33;;
20287;SDS011;10303;51.960;8.372;2022-12-04T17:53:48;15.80;;;7.90;;
20287;SDS011;10303;51.960;8.372;2022-12-04T17:56:17;11.70;;;6.00;;
20287;SDS011;10303;51.960;8.372;2022-12-04T17:58:48;17.10;;;8.57;;
20287;SDS011;10303;51.960;8.372;2022-12-04T18:01:16;11.43;;;6.70;;
20287;SDS011;10303;51.960;8.372;2022-12-04T18:03:50;14.80;;;6.80;;